createdAt,value
2018-12-10T00:01:29.005Z,99.90
2018-12-10T00:04:04.281Z,99.90
2018-12-10T00:06:38.738Z,99.90
2018-12-10T00:09:13.081Z,99.90
2018-12-10T00:11:48.439Z,99.90
2018-12-10T00:14:23.836Z,99.90
2018-12-10T00:16:59.029Z,99.90
2018-12-10T00:19:34.518Z,99.90
2018-12-10T00:22:09.838Z,99.90
2018-12-10T00:24:44.833Z,99.90
2018-12-10T00:27:19.312Z,99.90
2018-12-10T00:29:54.430Z,99.90
2018-12-10T00:32:28.991Z,99.90
2018-12-10T00:35:03.589Z,99.90
2018-12-10T00:37:39.405Z,99.90
2018-12-10T00:40:15.425Z,99.90
2018-12-10T00:42:51.005Z,99.90
2018-12-10T00:45:26.504Z,99.90
2018-12-10T00:48:02.250Z,99.90
2018-12-10T00:50:37.507Z,99.90
2018-12-10T00:53:14.669Z,99.90
2018-12-10T00:55:50.391Z,99.90
2018-12-10T00:58:27.332Z,99.90
2018-12-10T01:01:02.652Z,99.90
2018-12-10T01:03:38.743Z,99.90
2018-12-10T01:06:14.180Z,99.90
2018-12-10T01:08:48.651Z,99.90
2018-12-10T01:11:23.601Z,99.90
2018-12-10T01:13:58.129Z,99.90
2018-12-10T01:16:33.356Z,99.90
2018-12-10T01:19:08.314Z,99.90
2018-12-10T01:21:43.206Z,99.90
2018-12-10T01:24:18.690Z,99.90
2018-12-10T01:26:53.948Z,99.90
2018-12-10T01:29:36.266Z,99.90
2018-12-10T01:32:11.269Z,99.90
2018-12-10T01:34:45.760Z,99.90
2018-12-10T01:37:20.735Z,99.90
2018-12-10T01:39:55.755Z,99.90
2018-12-10T01:42:30.276Z,99.90
2018-12-10T01:45:05.717Z,99.90
2018-12-10T01:47:40.270Z,99.90
2018-12-10T01:50:15.361Z,99.90
2018-12-10T01:52:49.861Z,99.90
2018-12-10T01:55:25.233Z,99.90
2018-12-10T01:57:59.652Z,99.90
2018-12-10T02:00:42.381Z,99.90
2018-12-10T02:03:17.702Z,99.90
2018-12-10T02:05:52.177Z,99.90
2018-12-10T02:08:26.933Z,99.90
2018-12-10T02:11:10.670Z,99.90
2018-12-10T02:13:45.007Z,99.90
2018-12-10T02:16:20.509Z,99.90
2018-12-10T02:18:55.909Z,99.90
2018-12-10T02:21:30.665Z,99.90
2018-12-10T02:24:05.894Z,99.90
2018-12-10T02:26:40.432Z,99.90
2018-12-10T02:29:15.778Z,99.90
2018-12-10T02:31:50.513Z,99.90
2018-12-10T02:34:25.723Z,99.90
2018-12-10T02:37:00.881Z,99.90
2018-12-10T02:42:17.380Z,99.90
2018-12-10T02:44:51.691Z,99.90
2018-12-10T02:47:26.095Z,99.90
2018-12-10T02:50:01.277Z,99.90
2018-12-10T02:52:36.257Z,99.90
2018-12-10T02:55:11.462Z,99.90
2018-12-10T02:57:46.123Z,99.90
2018-12-10T03:00:24.297Z,99.90
2018-12-10T03:02:59.355Z,99.90
2018-12-10T03:05:33.702Z,99.90
2018-12-10T03:08:08.207Z,99.90
2018-12-10T03:10:42.681Z,99.90
2018-12-10T03:13:17.917Z,99.90
2018-12-10T03:15:52.966Z,99.90
2018-12-10T03:18:28.313Z,99.90
2018-12-10T03:21:03.438Z,99.90
2018-12-10T03:23:37.938Z,99.90
2018-12-10T03:26:12.476Z,99.90
2018-12-10T03:28:47.604Z,99.90
2018-12-10T03:31:23.071Z,99.90
2018-12-10T03:33:58.502Z,99.90
2018-12-10T03:36:33.917Z,99.90
2018-12-10T03:39:09.181Z,99.90
2018-12-10T03:41:44.222Z,99.90
2018-12-10T03:44:18.773Z,99.90
2018-12-10T03:46:53.211Z,99.90
2018-12-10T03:49:27.822Z,99.90
2018-12-10T03:52:02.870Z,99.90
2018-12-10T03:54:37.161Z,99.90
2018-12-10T03:57:12.406Z,99.90
2018-12-10T03:59:46.826Z,99.90
2018-12-10T04:02:21.737Z,99.90
2018-12-10T04:04:56.242Z,99.90
2018-12-10T04:07:30.908Z,99.90
2018-12-10T04:10:06.101Z,99.90
2018-12-10T04:12:41.202Z,99.90
2018-12-10T04:15:16.811Z,99.90
2018-12-10T04:17:51.246Z,99.90
2018-12-10T04:20:26.300Z,99.90
2018-12-10T04:23:00.656Z,99.90
2018-12-10T04:25:35.226Z,99.90
2018-12-10T04:28:09.776Z,99.90
2018-12-10T04:30:44.583Z,99.90
2018-12-10T04:33:22.290Z,99.90
2018-12-10T04:35:56.661Z,99.90
2018-12-10T04:38:31.646Z,99.90
2018-12-10T04:41:06.702Z,99.90
2018-12-10T04:43:41.349Z,99.90
2018-12-10T04:46:15.689Z,99.90
2018-12-10T04:48:50.035Z,99.90
2018-12-10T04:51:25.059Z,99.90
2018-12-10T04:53:59.707Z,99.90
2018-12-10T04:56:41.902Z,99.90
2018-12-10T04:59:17.259Z,99.90
2018-12-10T05:01:52.609Z,99.90
2018-12-10T05:04:27.046Z,99.90
2018-12-10T05:07:01.463Z,99.90
2018-12-10T05:09:35.821Z,99.90
2018-12-10T05:12:10.233Z,99.90
2018-12-10T05:14:44.475Z,99.90
2018-12-10T05:17:19.516Z,99.90
2018-12-10T05:19:58.241Z,99.90
2018-12-10T05:22:32.857Z,99.90
2018-12-10T05:25:07.272Z,99.90
2018-12-10T05:27:41.581Z,99.90
2018-12-10T05:30:16.475Z,99.90
2018-12-10T05:32:51.351Z,99.90
2018-12-10T05:35:26.348Z,99.90
2018-12-10T05:38:01.390Z,99.90
2018-12-10T05:40:36.738Z,99.90
2018-12-10T05:43:11.122Z,99.90
2018-12-10T05:45:45.536Z,99.90
2018-12-10T05:48:20.121Z,99.90
2018-12-10T05:50:55.261Z,99.90
2018-12-10T05:53:30.579Z,99.90
2018-12-10T05:56:05.694Z,99.90
2018-12-10T05:58:40.824Z,99.90
2018-12-10T06:01:16.153Z,99.90
2018-12-10T06:10:46.875Z,99.90
2018-12-10T06:13:24.779Z,99.90
2018-12-10T06:16:00.390Z,99.90
2018-12-10T06:18:35.801Z,99.90
2018-12-10T06:21:10.777Z,99.90
2018-12-10T06:23:45.325Z,99.90
2018-12-10T06:26:20.471Z,99.90
2018-12-10T06:28:55.453Z,99.90
2018-12-10T06:31:29.945Z,99.90
2018-12-10T06:34:05.809Z,99.90
2018-12-10T06:36:40.975Z,99.90
2018-12-10T06:39:16.145Z,99.90
2018-12-10T06:41:51.179Z,99.90
2018-12-10T06:44:25.735Z,99.90
2018-12-10T06:47:00.319Z,99.90
2018-12-10T06:49:35.773Z,99.90
2018-12-10T06:52:10.786Z,99.90
2018-12-10T06:54:45.938Z,99.90
2018-12-10T06:57:21.354Z,99.90
2018-12-10T06:59:56.737Z,99.90
2018-12-10T07:02:40.026Z,99.90
2018-12-10T07:05:15.102Z,99.90
2018-12-10T07:07:49.395Z,99.90
2018-12-10T07:10:23.901Z,99.90
2018-12-10T07:12:59.260Z,99.90
2018-12-10T07:15:34.398Z,99.90
2018-12-10T07:18:16.953Z,99.90
2018-12-10T07:21:00.195Z,99.90
2018-12-10T07:23:34.773Z,99.90
2018-12-10T07:26:09.297Z,99.90
2018-12-10T07:28:44.287Z,99.90
2018-12-10T07:31:18.850Z,99.90
2018-12-10T07:33:54.158Z,99.90
2018-12-10T07:36:29.617Z,99.90
2018-12-10T07:39:06.785Z,99.90
2018-12-10T07:41:42.365Z,99.90
2018-12-10T07:44:16.984Z,99.90
2018-12-10T07:46:52.193Z,99.90
2018-12-10T07:49:26.741Z,99.90
2018-12-10T07:52:01.575Z,99.90
2018-12-10T07:54:37.045Z,99.90
2018-12-10T07:57:11.961Z,99.90
2018-12-10T07:59:47.106Z,99.90
2018-12-10T08:02:22.315Z,99.90
2018-12-10T08:04:57.208Z,99.90
2018-12-10T08:07:32.517Z,99.90
2018-12-10T08:10:07.858Z,99.90
2018-12-10T08:12:42.331Z,99.90
2018-12-10T08:15:17.436Z,99.90
2018-12-10T08:17:53.012Z,99.90
2018-12-10T08:20:27.767Z,99.90
2018-12-10T08:23:02.256Z,99.90
2018-12-10T08:25:36.713Z,99.90
2018-12-10T08:28:11.184Z,99.90
2018-12-10T08:30:46.460Z,99.90
2018-12-10T08:33:23.690Z,99.90
2018-12-10T08:35:58.074Z,99.90
2018-12-10T08:38:32.974Z,99.90
2018-12-10T08:41:07.470Z,99.90
2018-12-10T08:43:42.505Z,99.90
2018-12-10T08:46:17.034Z,99.90
2018-12-10T08:48:52.110Z,99.90
2018-12-10T08:51:27.378Z,99.90
2018-12-10T08:54:02.314Z,99.90
2018-12-10T08:56:43.741Z,99.90
2018-12-10T08:59:18.464Z,99.90
2018-12-10T09:01:53.310Z,99.90
2018-12-10T09:04:28.388Z,99.90
2018-12-10T09:07:03.667Z,99.90
2018-12-10T09:09:38.760Z,99.90
2018-12-10T09:12:13.941Z,99.90
2018-12-10T09:14:48.341Z,99.90
2018-12-10T09:17:24.010Z,99.90
2018-12-10T09:19:59.315Z,99.80
2018-12-10T09:22:33.842Z,99.90
2018-12-10T09:25:08.501Z,99.90
2018-12-10T09:27:43.529Z,99.90
2018-12-10T09:30:18.683Z,99.50
2018-12-10T09:32:53.016Z,99.40
2018-12-10T09:35:28.237Z,99.10
2018-12-10T09:38:03.279Z,99.00
2018-12-10T09:40:37.803Z,99.20
2018-12-10T09:43:12.313Z,99.90
2018-12-10T09:45:47.337Z,99.90
2018-12-10T09:48:21.737Z,99.80
2018-12-10T09:50:57.233Z,99.50
2018-12-10T09:53:32.465Z,99.60
2018-12-10T09:56:07.519Z,99.40
2018-12-10T09:58:42.374Z,98.90
2018-12-10T10:01:17.481Z,98.80
2018-12-10T10:03:52.995Z,98.80
2018-12-10T10:06:28.544Z,98.70
2018-12-10T10:09:03.762Z,99.20
2018-12-10T10:11:38.430Z,99.00
2018-12-10T10:14:12.800Z,99.00
2018-12-10T10:16:47.949Z,99.90
2018-12-10T10:19:23.086Z,99.90
2018-12-10T10:21:58.326Z,99.90
2018-12-10T10:26:03.181Z,99.90
2018-12-10T10:28:38.388Z,99.90
2018-12-10T10:31:12.838Z,99.90
2018-12-10T10:33:48.116Z,99.90
2018-12-10T10:36:23.225Z,99.90
2018-12-10T10:38:58.283Z,99.90
2018-12-10T10:41:32.797Z,99.90
2018-12-10T10:44:07.367Z,99.90
2018-12-10T10:46:42.605Z,99.90
2018-12-10T10:49:17.042Z,99.90
2018-12-10T10:51:52.285Z,99.90
2018-12-10T10:54:27.491Z,99.90
2018-12-10T10:57:02.562Z,99.90
2018-12-10T10:59:40.561Z,99.90
2018-12-10T11:02:20.169Z,99.90
2018-12-10T11:04:54.746Z,99.90
2018-12-10T11:07:29.127Z,99.90
2018-12-10T11:10:03.963Z,99.90
2018-12-10T11:12:38.329Z,99.90
2018-12-10T11:15:17.310Z,99.90
2018-12-10T11:17:52.394Z,99.90
2018-12-10T11:20:27.778Z,99.90
2018-12-10T11:23:02.223Z,99.90
2018-12-10T11:25:37.453Z,99.90
2018-12-10T11:28:12.158Z,99.90
2018-12-10T11:30:47.461Z,99.90
2018-12-10T11:33:25.014Z,99.90
2018-12-10T11:35:59.568Z,99.90
2018-12-10T11:38:34.885Z,99.90
2018-12-10T11:41:09.380Z,99.90
2018-12-10T11:43:44.041Z,99.20
2018-12-10T11:46:19.213Z,98.70
2018-12-10T11:48:53.522Z,98.50
2018-12-10T11:51:28.980Z,99.30
2018-12-10T11:54:04.839Z,98.10
2018-12-10T11:56:44.581Z,97.40
2018-12-10T11:59:19.722Z,96.60
2018-12-10T12:01:55.044Z,95.70
2018-12-10T12:04:29.599Z,96.70
2018-12-10T12:07:08.742Z,96.50
2018-12-10T12:09:43.222Z,97.20
2018-12-10T12:12:18.277Z,97.00
2018-12-10T12:14:52.708Z,97.70
2018-12-10T12:17:28.038Z,97.70
2018-12-10T12:20:03.890Z,97.70
2018-12-10T12:22:38.463Z,98.40
2018-12-10T12:25:13.018Z,98.00
2018-12-10T12:27:47.445Z,97.50
2018-12-10T12:30:22.763Z,96.90
2018-12-10T12:32:57.275Z,94.40
2018-12-10T12:35:32.600Z,94.60
2018-12-10T12:38:07.733Z,94.10
2018-12-10T12:40:42.127Z,94.50
2018-12-10T12:43:17.460Z,94.70
2018-12-10T12:45:52.879Z,95.00
2018-12-10T12:48:27.512Z,95.40
2018-12-10T12:51:02.725Z,95.10
2018-12-10T12:53:37.585Z,95.40
2018-12-10T12:56:13.054Z,96.00
2018-12-10T12:58:48.441Z,95.40
2018-12-10T13:01:23.746Z,95.80
2018-12-10T13:03:57.998Z,96.80
2018-12-10T13:06:32.455Z,97.50
2018-12-10T13:09:07.446Z,97.80
2018-12-10T13:11:41.983Z,98.10
2018-12-10T13:14:17.557Z,98.20
2018-12-10T13:16:52.799Z,98.80
2018-12-10T13:19:29.658Z,98.70
2018-12-10T13:22:04.730Z,98.40
2018-12-10T13:24:39.757Z,98.20
2018-12-10T13:27:14.318Z,97.90
2018-12-10T13:29:49.286Z,97.70
2018-12-10T13:32:23.853Z,97.40
2018-12-10T13:34:58.866Z,97.20
2018-12-10T13:37:38.313Z,97.00
2018-12-10T13:40:12.951Z,96.20
2018-12-10T13:42:47.491Z,96.50
2018-12-10T13:45:21.890Z,96.40
2018-12-10T13:47:56.246Z,96.40
2018-12-10T13:50:31.426Z,96.40
2018-12-10T13:53:06.473Z,96.60
2018-12-10T13:55:41.823Z,97.10
2018-12-10T13:58:16.788Z,97.10
2018-12-10T14:00:52.208Z,97.70
2018-12-10T14:03:26.728Z,98.00
2018-12-10T14:06:01.545Z,99.00
2018-12-10T14:08:35.762Z,98.90
2018-12-10T14:11:10.864Z,98.90
2018-12-10T14:13:45.940Z,98.70
2018-12-10T14:16:21.158Z,99.10
2018-12-10T14:18:56.440Z,99.30
2018-12-10T14:21:31.955Z,99.40
2018-12-10T14:24:07.032Z,99.40
2018-12-10T14:26:41.735Z,99.40
2018-12-10T14:29:16.961Z,99.60
2018-12-10T14:31:51.270Z,99.50
2018-12-10T14:34:26.989Z,99.70
2018-12-10T14:37:01.961Z,99.70
2018-12-10T14:39:37.101Z,99.70
2018-12-10T14:42:23.901Z,99.90
2018-12-10T14:44:59.424Z,99.90
2018-12-10T14:47:33.997Z,99.90
2018-12-10T14:50:08.387Z,99.90
2018-12-10T14:52:43.567Z,99.90
2018-12-10T14:55:18.692Z,99.90
2018-12-10T14:57:53.502Z,99.90
2018-12-10T15:00:30.142Z,99.90
2018-12-10T15:03:05.485Z,99.90
2018-12-10T15:05:40.765Z,99.90
2018-12-10T15:08:15.119Z,99.90
2018-12-10T15:10:50.737Z,99.90
2018-12-10T15:13:25.281Z,99.90
2018-12-10T15:16:00.597Z,99.90
2018-12-10T15:18:35.973Z,99.90
2018-12-10T15:21:11.149Z,99.90
2018-12-10T15:23:46.727Z,99.90
2018-12-10T15:26:21.329Z,99.90
2018-12-10T15:28:57.642Z,99.90
2018-12-10T15:31:33.276Z,99.90
2018-12-10T15:34:08.721Z,99.90
2018-12-10T15:36:44.218Z,99.90
2018-12-10T15:39:19.661Z,99.90
2018-12-10T15:41:54.061Z,99.90
2018-12-10T15:44:30.091Z,99.90
2018-12-10T15:47:04.636Z,99.90
2018-12-10T15:49:38.896Z,99.90
2018-12-10T15:52:14.376Z,99.90
2018-12-10T15:54:50.629Z,99.90
2018-12-10T15:57:28.197Z,99.90
2018-12-10T16:00:04.414Z,99.90
2018-12-10T16:02:40.686Z,99.90
2018-12-10T16:05:16.310Z,99.90
2018-12-10T16:07:50.958Z,99.90
2018-12-10T16:10:25.585Z,99.90
2018-12-10T16:13:00.257Z,99.90
2018-12-10T16:15:36.534Z,99.90
2018-12-10T16:18:21.444Z,99.90
2018-12-10T16:20:57.886Z,99.90
2018-12-10T16:23:39.534Z,99.90
2018-12-10T16:26:13.833Z,99.90
2018-12-10T16:28:50.082Z,99.90
2018-12-10T16:31:25.214Z,99.90
2018-12-10T16:34:00.749Z,99.90
2018-12-10T16:36:37.445Z,99.90
2018-12-10T16:39:14.366Z,99.90
2018-12-10T16:41:48.802Z,99.90
2018-12-10T16:44:24.073Z,99.90
2018-12-10T16:46:58.740Z,99.90
2018-12-10T16:49:34.433Z,99.90
2018-12-10T16:52:10.102Z,99.90
2018-12-10T16:54:45.825Z,99.90
2018-12-10T16:57:22.226Z,99.90
2018-12-10T16:59:58.788Z,99.90
2018-12-10T17:02:34.518Z,99.90
2018-12-10T17:05:08.972Z,99.90
2018-12-10T17:07:45.494Z,99.90
2018-12-10T17:10:20.173Z,99.90
2018-12-10T17:12:55.108Z,99.90
2018-12-10T17:15:31.681Z,99.90
2018-12-10T17:18:06.394Z,99.90
2018-12-10T17:20:42.967Z,99.90
2018-12-10T17:23:19.744Z,99.90
2018-12-10T17:25:54.334Z,99.90
2018-12-10T17:28:35.762Z,99.90
2018-12-10T17:31:10.162Z,99.90
2018-12-10T17:33:47.178Z,99.90
2018-12-10T17:36:25.763Z,99.90
2018-12-10T17:39:03.074Z,99.90
2018-12-10T17:41:39.410Z,99.90
2018-12-10T17:44:13.916Z,99.70
2018-12-10T17:46:48.789Z,99.70
2018-12-10T17:49:23.476Z,99.90
2018-12-10T17:52:00.187Z,99.90
2018-12-10T17:54:34.782Z,99.90
2018-12-10T17:57:11.385Z,99.90
2018-12-10T17:59:45.910Z,99.90
2018-12-10T18:02:22.141Z,99.90
2018-12-10T18:04:56.716Z,99.90
2018-12-10T18:07:33.174Z,99.90
2018-12-10T18:10:07.970Z,99.90
2018-12-10T18:12:42.361Z,99.90
2018-12-10T18:15:25.437Z,99.90
2018-12-10T18:18:00.031Z,99.90
2018-12-10T18:20:36.836Z,99.90
2018-12-10T18:23:11.359Z,99.90
2018-12-10T18:25:45.698Z,99.90
2018-12-10T18:28:20.391Z,99.90
2018-12-10T18:30:56.782Z,99.90
2018-12-10T18:33:34.602Z,99.90
2018-12-10T18:36:09.273Z,99.90
2018-12-10T18:38:45.279Z,99.90
2018-12-10T18:41:27.089Z,99.90
2018-12-10T18:44:01.650Z,99.90
2018-12-10T18:46:36.380Z,99.90
2018-12-10T18:49:10.941Z,99.90
2018-12-10T18:51:47.620Z,99.90
2018-12-10T18:54:24.891Z,99.90
2018-12-10T18:57:09.404Z,99.90
2018-12-10T18:59:43.925Z,99.90
2018-12-10T19:02:20.702Z,99.90
2018-12-10T19:04:56.887Z,99.90
2018-12-10T19:07:33.869Z,99.90
2018-12-10T19:10:09.256Z,99.90
2018-12-10T19:12:44.965Z,99.90
2018-12-10T19:15:26.967Z,99.90
2018-12-10T19:18:01.613Z,99.90
2018-12-10T19:20:38.470Z,99.90
2018-12-10T19:23:14.878Z,99.90
2018-12-10T19:25:49.565Z,99.90
2018-12-10T19:28:32.960Z,99.90
2018-12-10T19:31:08.593Z,99.90
2018-12-10T19:33:45.738Z,99.90
2018-12-10T19:36:23.498Z,99.90
2018-12-10T19:39:00.913Z,99.90
2018-12-10T19:41:35.445Z,99.90
2018-12-10T19:44:09.729Z,99.90
2018-12-10T19:46:44.370Z,99.90
2018-12-10T19:49:20.663Z,99.90
2018-12-10T19:51:57.334Z,99.90
2018-12-10T19:54:33.329Z,99.90
2018-12-10T19:57:09.869Z,99.90
2018-12-10T19:59:44.382Z,99.90
2018-12-10T20:02:20.858Z,99.90
2018-12-10T20:04:55.479Z,99.90
2018-12-10T20:07:30.473Z,99.90
2018-12-10T20:10:06.626Z,99.90
2018-12-10T20:12:41.460Z,99.90
2018-12-10T20:15:27.191Z,99.90
2018-12-10T20:18:01.820Z,99.90
2018-12-10T20:20:37.857Z,99.90
2018-12-10T20:23:12.504Z,99.90
2018-12-10T20:25:48.974Z,99.90
2018-12-10T20:31:05.679Z,99.90
2018-12-10T20:33:49.926Z,99.90
2018-12-10T20:36:26.572Z,99.90
2018-12-10T20:39:04.632Z,99.90
2018-12-10T20:41:41.149Z,99.90
2018-12-10T20:44:15.625Z,99.90
2018-12-10T20:46:50.097Z,99.90
2018-12-10T20:49:26.624Z,99.90
2018-12-10T20:52:03.651Z,99.90
2018-12-10T20:54:38.257Z,99.90
2018-12-10T20:57:15.773Z,99.90
2018-12-10T21:06:47.227Z,99.90
2018-12-10T21:09:21.659Z,99.90
2018-12-10T21:11:56.303Z,99.90
2018-12-10T21:14:31.973Z,99.90
2018-12-10T21:17:07.413Z,99.90
2018-12-10T21:22:29.321Z,99.90
2018-12-10T21:25:04.257Z,99.90
2018-12-10T21:27:39.025Z,99.90
2018-12-10T21:30:14.982Z,99.90
2018-12-10T21:32:50.757Z,99.90
2018-12-10T21:35:26.598Z,99.90
2018-12-10T21:38:02.181Z,99.90
2018-12-10T21:40:36.966Z,99.90
2018-12-10T21:43:11.489Z,99.90
2018-12-10T21:45:45.804Z,99.90
2018-12-10T21:48:21.349Z,99.90
2018-12-10T21:50:58.864Z,99.90
2018-12-10T21:53:34.006Z,99.90
2018-12-10T21:56:08.359Z,99.90
2018-12-10T21:58:43.345Z,99.90
2018-12-10T22:01:18.418Z,99.90
2018-12-10T22:03:53.750Z,99.90
2018-12-10T22:06:28.262Z,99.90
2018-12-10T22:09:02.691Z,99.90
2018-12-10T22:11:37.169Z,99.90
2018-12-10T22:14:12.238Z,99.90
2018-12-10T22:16:47.470Z,99.90
2018-12-10T22:19:22.634Z,99.90
2018-12-10T22:21:57.782Z,99.90
2018-12-10T22:24:32.227Z,99.90
2018-12-10T22:27:06.561Z,99.90
2018-12-10T22:29:41.677Z,99.90
2018-12-10T22:32:16.045Z,99.90
2018-12-10T22:34:50.855Z,99.90
2018-12-10T22:37:26.073Z,99.90
2018-12-10T22:40:01.441Z,99.90
2018-12-10T22:42:36.815Z,99.90
2018-12-10T22:45:11.274Z,99.90
2018-12-10T22:47:45.793Z,99.90
2018-12-10T22:50:20.109Z,99.90
2018-12-10T22:52:55.310Z,99.90
2018-12-10T22:55:30.475Z,99.90
2018-12-10T22:58:05.936Z,99.90
2018-12-10T23:00:47.210Z,99.90
2018-12-10T23:03:30.820Z,99.90
2018-12-10T23:06:05.190Z,99.90
2018-12-10T23:08:40.416Z,99.90
2018-12-10T23:11:14.668Z,99.90
2018-12-10T23:13:49.984Z,99.90
2018-12-10T23:16:25.113Z,99.90
2018-12-10T23:19:00.209Z,99.90
2018-12-10T23:21:35.367Z,99.90
2018-12-10T23:24:10.476Z,99.90
2018-12-10T23:26:44.833Z,99.90
2018-12-10T23:29:19.976Z,99.90
2018-12-10T23:31:55.201Z,99.90
2018-12-10T23:34:30.351Z,99.90
2018-12-10T23:37:05.363Z,99.90
2018-12-10T23:39:40.645Z,99.90
2018-12-10T23:42:14.997Z,99.90
2018-12-10T23:44:55.871Z,99.90
2018-12-10T23:47:30.946Z,99.90
2018-12-10T23:50:05.556Z,99.90
2018-12-10T23:52:41.053Z,99.90
2018-12-10T23:55:15.622Z,99.90
2018-12-10T23:57:50.888Z,99.90
